sensor_id;sensor_type;location;lat;lon;timestamp;P1;durP1;ratioP1;P2;durP2;ratioP2
72388;SDS011;60566;48.062;9.930;2022-11-20T00:00:25;8.13;;;4.28;;
72388;SDS011;60566;48.062;9.930;2022-11-20T00:02:50;7.30;;;4.35;;
72388;SDS011;60566;48.062;9.930;2022-11-20T00:05:17;7.40;;;3.83;;
72388;SDS011;60566;48.062;9.930;2022-11-20T00:07:42;7.43;;;4.18;;
72388;SDS011;60566;48.062;9.930;2022-11-20T00:10:08;7.25;;;3.83;;
72388;SDS011;60566;48.062;9.930;2022-11-20T00:12:34;8.15;;;3.72;;
72388;SDS011;60566;48.062;9.930;2022-11-20T00:14:59;7.90;;;3.97;;
72388;SDS011;60566;48.062;9.930;2022-11-20T00:17:25;8.77;;;4.43;;
72388;SDS011;60566;48.062;9.930;2022-11-20T00:19:50;6.97;;;3.50;;
72388;SDS011;60566;48.062;9.930;2022-11-20T00:22:17;7.03;;;3.67;;
72388;SDS011;60566;48.062;9.930;2022-11-20T00:24:42;8.57;;;3.42;;
72388;SDS011;60566;48.062;9.930;2022-11-20T00:27:07;7.90;;;3.88;;
72388;SDS011;60566;48.062;9.930;2022-11-20T00:29:33;7.88;;;3.42;;
72388;SDS011;60566;48.062;9.930;2022-11-20T00:31:58;7.03;;;4.65;;
72388;SDS011;60566;48.062;9.930;2022-11-20T00:34:24;6.40;;;4.28;;
72388;SDS011;60566;48.062;9.930;2022-11-20T00:36:49;7.28;;;4.07;;
72388;SDS011;60566;48.062;9.930;2022-11-20T00:39:16;9.18;;;5.13;;
72388;SDS011;60566;48.062;9.930;2022-11-20T00:41:41;8.35;;;4.20;;
72388;SDS011;60566;48.062;9.930;2022-11-20T00:44:07;6.95;;;3.50;;
72388;SDS011;60566;48.062;9.930;2022-11-20T00:46:32;6.95;;;3.65;;
72388;SDS011;60566;48.062;9.930;2022-11-20T00:48:58;7.05;;;3.95;;
72388;SDS011;60566;48.062;9.930;2022-11-20T00:51:24;6.47;;;3.60;;
72388;SDS011;60566;48.062;9.930;2022-11-20T00:53:50;9.88;;;4.32;;
72388;SDS011;60566;48.062;9.930;2022-11-20T00:56:18;7.35;;;4.25;;
72388;SDS011;60566;48.062;9.930;2022-11-20T00:58:44;7.22;;;4.07;;
72388;SDS011;60566;48.062;9.930;2022-11-20T01:01:12;7.55;;;4.22;;
72388;SDS011;60566;48.062;9.930;2022-11-20T01:03:39;7.50;;;3.92;;
72388;SDS011;60566;48.062;9.930;2022-11-20T01:06:07;8.25;;;3.97;;
72388;SDS011;60566;48.062;9.930;2022-11-20T01:08:35;7.95;;;4.07;;
72388;SDS011;60566;48.062;9.930;2022-11-20T01:11:01;8.80;;;3.80;;
72388;SDS011;60566;48.062;9.930;2022-11-20T01:13:28;6.10;;;3.88;;
72388;SDS011;60566;48.062;9.930;2022-11-20T01:15:53;7.75;;;4.05;;
72388;SDS011;60566;48.062;9.930;2022-11-20T01:18:19;7.72;;;3.92;;
72388;SDS011;60566;48.062;9.930;2022-11-20T01:20:44;6.68;;;3.83;;
72388;SDS011;60566;48.062;9.930;2022-11-20T01:23:10;6.65;;;3.47;;
72388;SDS011;60566;48.062;9.930;2022-11-20T01:25:35;7.35;;;4.28;;
72388;SDS011;60566;48.062;9.930;2022-11-20T01:28:01;7.57;;;4.07;;
72388;SDS011;60566;48.062;9.930;2022-11-20T01:30:27;7.50;;;3.72;;
72388;SDS011;60566;48.062;9.930;2022-11-20T01:32:53;8.20;;;3.45;;
72388;SDS011;60566;48.062;9.930;2022-11-20T01:35:20;6.53;;;3.38;;
72388;SDS011;60566;48.062;9.930;2022-11-20T01:37:45;8.23;;;4.55;;
72388;SDS011;60566;48.062;9.930;2022-11-20T01:40:11;8.90;;;3.88;;
72388;SDS011;60566;48.062;9.930;2022-11-20T01:42:37;7.40;;;4.80;;
72388;SDS011;60566;48.062;9.930;2022-11-20T01:48:02;8.23;;;4.18;;
72388;SDS011;60566;48.062;9.930;2022-11-20T01:50:28;10.25;;;4.72;;
72388;SDS011;60566;48.062;9.930;2022-11-20T01:52:54;8.93;;;4.82;;
72388;SDS011;60566;48.062;9.930;2022-11-20T01:57:48;10.82;;;4.55;;
72388;SDS011;60566;48.062;9.930;2022-11-20T02:00:15;9.02;;;5.35;;
72388;SDS011;60566;48.062;9.930;2022-11-20T02:02:42;8.55;;;4.55;;
72388;SDS011;60566;48.062;9.930;2022-11-20T02:05:14;8.80;;;4.30;;
72388;SDS011;60566;48.062;9.930;2022-11-20T02:07:43;8.93;;;5.00;;
72388;SDS011;60566;48.062;9.930;2022-11-20T02:10:09;10.00;;;5.38;;
72388;SDS011;60566;48.062;9.930;2022-11-20T02:12:34;7.60;;;5.00;;
72388;SDS011;60566;48.062;9.930;2022-11-20T02:14:59;8.80;;;4.20;;
72388;SDS011;60566;48.062;9.930;2022-11-20T02:17:25;8.82;;;4.40;;
72388;SDS011;60566;48.062;9.930;2022-11-20T02:19:50;6.40;;;3.92;;
72388;SDS011;60566;48.062;9.930;2022-11-20T02:22:18;9.52;;;4.78;;
72388;SDS011;60566;48.062;9.930;2022-11-20T02:24:48;7.32;;;3.95;;
72388;SDS011;60566;48.062;9.930;2022-11-20T02:27:15;8.43;;;4.93;;
72388;SDS011;60566;48.062;9.930;2022-11-20T02:29:42;8.27;;;4.55;;
72388;SDS011;60566;48.062;9.930;2022-11-20T02:34:42;8.00;;;4.05;;
72388;SDS011;60566;48.062;9.930;2022-11-20T02:37:08;8.60;;;4.15;;
72388;SDS011;60566;48.062;9.930;2022-11-20T02:39:33;12.35;;;5.95;;
72388;SDS011;60566;48.062;9.930;2022-11-20T02:42:00;8.20;;;4.53;;
72388;SDS011;60566;48.062;9.930;2022-11-20T02:44:27;9.15;;;5.43;;
72388;SDS011;60566;48.062;9.930;2022-11-20T02:46:52;8.18;;;4.32;;
72388;SDS011;60566;48.062;9.930;2022-11-20T02:49:17;9.05;;;4.55;;
72388;SDS011;60566;48.062;9.930;2022-11-20T02:51:43;8.80;;;4.15;;
72388;SDS011;60566;48.062;9.930;2022-11-20T02:54:08;8.63;;;4.25;;
72388;SDS011;60566;48.062;9.930;2022-11-20T02:56:34;8.45;;;5.05;;
72388;SDS011;60566;48.062;9.930;2022-11-20T02:59:01;9.90;;;4.93;;
72388;SDS011;60566;48.062;9.930;2022-11-20T03:01:26;7.45;;;3.70;;
72388;SDS011;60566;48.062;9.930;2022-11-20T03:03:51;6.78;;;3.80;;
72388;SDS011;60566;48.062;9.930;2022-11-20T03:06:17;6.70;;;3.65;;
72388;SDS011;60566;48.062;9.930;2022-11-20T03:08:42;6.90;;;4.60;;
72388;SDS011;60566;48.062;9.930;2022-11-20T03:11:08;7.85;;;4.05;;
72388;SDS011;60566;48.062;9.930;2022-11-20T03:13:34;7.00;;;4.10;;
72388;SDS011;60566;48.062;9.930;2022-11-20T03:16:06;9.73;;;4.70;;
72388;SDS011;60566;48.062;9.930;2022-11-20T03:18:32;7.25;;;3.70;;
72388;SDS011;60566;48.062;9.930;2022-11-20T03:20:57;7.68;;;4.50;;
72388;SDS011;60566;48.062;9.930;2022-11-20T03:23:23;10.65;;;5.05;;
72388;SDS011;60566;48.062;9.930;2022-11-20T03:25:48;8.02;;;4.95;;
72388;SDS011;60566;48.062;9.930;2022-11-20T03:28:14;8.45;;;4.28;;
72388;SDS011;60566;48.062;9.930;2022-11-20T03:30:40;8.10;;;4.53;;
72388;SDS011;60566;48.062;9.930;2022-11-20T03:33:06;8.65;;;5.07;;
72388;SDS011;60566;48.062;9.930;2022-11-20T03:35:32;11.52;;;5.57;;
72388;SDS011;60566;48.062;9.930;2022-11-20T03:37:57;9.93;;;5.40;;
72388;SDS011;60566;48.062;9.930;2022-11-20T03:40:23;7.38;;;5.03;;
72388;SDS011;60566;48.062;9.930;2022-11-20T03:42:48;11.10;;;5.43;;
72388;SDS011;60566;48.062;9.930;2022-11-20T03:45:14;10.60;;;4.22;;
72388;SDS011;60566;48.062;9.930;2022-11-20T03:47:40;9.88;;;5.88;;
72388;SDS011;60566;48.062;9.930;2022-11-20T03:50:07;10.68;;;5.90;;
72388;SDS011;60566;48.062;9.930;2022-11-20T03:52:33;9.18;;;5.18;;
72388;SDS011;60566;48.062;9.930;2022-11-20T03:54:59;8.20;;;4.45;;
72388;SDS011;60566;48.062;9.930;2022-11-20T03:57:24;8.05;;;5.18;;
72388;SDS011;60566;48.062;9.930;2022-11-20T03:59:49;9.35;;;5.70;;
72388;SDS011;60566;48.062;9.930;2022-11-20T04:02:15;10.27;;;5.65;;
72388;SDS011;60566;48.062;9.930;2022-11-20T04:04:40;12.52;;;5.35;;
72388;SDS011;60566;48.062;9.930;2022-11-20T04:07:07;9.55;;;6.30;;
72388;SDS011;60566;48.062;9.930;2022-11-20T04:09:33;12.45;;;5.20;;
72388;SDS011;60566;48.062;9.930;2022-11-20T04:11:58;8.95;;;5.60;;
72388;SDS011;60566;48.062;9.930;2022-11-20T04:14:24;10.38;;;5.93;;
72388;SDS011;60566;48.062;9.930;2022-11-20T04:16:50;11.65;;;6.70;;
72388;SDS011;60566;48.062;9.930;2022-11-20T04:19:15;11.45;;;5.95;;
72388;SDS011;60566;48.062;9.930;2022-11-20T04:21:41;11.07;;;5.32;;
72388;SDS011;60566;48.062;9.930;2022-11-20T04:24:08;13.10;;;6.03;;
72388;SDS011;60566;48.062;9.930;2022-11-20T04:26:34;11.43;;;6.60;;
72388;SDS011;60566;48.062;9.930;2022-11-20T04:28:59;17.20;;;6.15;;
72388;SDS011;60566;48.062;9.930;2022-11-20T04:31:26;9.80;;;5.97;;
72388;SDS011;60566;48.062;9.930;2022-11-20T04:33:53;11.18;;;5.45;;
72388;SDS011;60566;48.062;9.930;2022-11-20T04:36:19;9.25;;;5.03;;
72388;SDS011;60566;48.062;9.930;2022-11-20T04:38:49;11.82;;;5.32;;
72388;SDS011;60566;48.062;9.930;2022-11-20T04:41:18;8.45;;;4.40;;
72388;SDS011;60566;48.062;9.930;2022-11-20T04:43:46;9.35;;;5.03;;
72388;SDS011;60566;48.062;9.930;2022-11-20T04:46:12;9.88;;;5.13;;
72388;SDS011;60566;48.062;9.930;2022-11-20T04:48:37;10.40;;;5.35;;
72388;SDS011;60566;48.062;9.930;2022-11-20T04:51:03;9.32;;;5.20;;
72388;SDS011;60566;48.062;9.930;2022-11-20T04:53:29;9.43;;;5.05;;
72388;SDS011;60566;48.062;9.930;2022-11-20T04:55:58;9.75;;;5.57;;
72388;SDS011;60566;48.062;9.930;2022-11-20T04:58:26;12.50;;;5.95;;
72388;SDS011;60566;48.062;9.930;2022-11-20T05:00:51;12.45;;;6.40;;
72388;SDS011;60566;48.062;9.930;2022-11-20T05:03:16;12.32;;;6.47;;
72388;SDS011;60566;48.062;9.930;2022-11-20T05:05:42;11.20;;;6.20;;
72388;SDS011;60566;48.062;9.930;2022-11-20T05:08:07;9.18;;;5.68;;
72388;SDS011;60566;48.062;9.930;2022-11-20T05:10:33;7.65;;;4.97;;
72388;SDS011;60566;48.062;9.930;2022-11-20T05:12:58;14.35;;;5.25;;
72388;SDS011;60566;48.062;9.930;2022-11-20T05:15:25;7.70;;;4.65;;
72388;SDS011;60566;48.062;9.930;2022-11-20T05:17:51;7.57;;;4.20;;
72388;SDS011;60566;48.062;9.930;2022-11-20T05:20:17;9.55;;;4.53;;
72388;SDS011;60566;48.062;9.930;2022-11-20T05:22:43;8.35;;;5.32;;
72388;SDS011;60566;48.062;9.930;2022-11-20T05:25:08;8.52;;;4.70;;
72388;SDS011;60566;48.062;9.930;2022-11-20T05:27:34;10.88;;;5.28;;
72388;SDS011;60566;48.062;9.930;2022-11-20T05:29:59;7.78;;;4.57;;
72388;SDS011;60566;48.062;9.930;2022-11-20T05:32:26;7.28;;;3.92;;
72388;SDS011;60566;48.062;9.930;2022-11-20T05:34:51;9.00;;;4.90;;
72388;SDS011;60566;48.062;9.930;2022-11-20T05:37:17;8.98;;;5.05;;
72388;SDS011;60566;48.062;9.930;2022-11-20T05:39:42;9.40;;;4.70;;
72388;SDS011;60566;48.062;9.930;2022-11-20T05:42:08;9.10;;;4.97;;
72388;SDS011;60566;48.062;9.930;2022-11-20T05:44:33;10.05;;;5.55;;
72388;SDS011;60566;48.062;9.930;2022-11-20T05:47:00;11.13;;;4.45;;
72388;SDS011;60566;48.062;9.930;2022-11-20T05:49:27;8.98;;;4.55;;
72388;SDS011;60566;48.062;9.930;2022-11-20T05:51:53;9.57;;;5.63;;
72388;SDS011;60566;48.062;9.930;2022-11-20T05:54:18;10.45;;;5.32;;
72388;SDS011;60566;48.062;9.930;2022-11-20T05:56:44;8.48;;;4.95;;
72388;SDS011;60566;48.062;9.930;2022-11-20T05:59:09;9.07;;;4.68;;
72388;SDS011;60566;48.062;9.930;2022-11-20T06:01:34;8.38;;;4.68;;
72388;SDS011;60566;48.062;9.930;2022-11-20T06:04:00;11.35;;;5.68;;
72388;SDS011;60566;48.062;9.930;2022-11-20T06:06:27;9.93;;;5.07;;
72388;SDS011;60566;48.062;9.930;2022-11-20T06:08:52;9.55;;;5.40;;
72388;SDS011;60566;48.062;9.930;2022-11-20T06:11:19;11.63;;;5.88;;
72388;SDS011;60566;48.062;9.930;2022-11-20T06:13:44;13.65;;;6.32;;
72388;SDS011;60566;48.062;9.930;2022-11-20T06:16:11;9.15;;;5.10;;
72388;SDS011;60566;48.062;9.930;2022-11-20T06:18:37;11.63;;;6.25;;
72388;SDS011;60566;48.062;9.930;2022-11-20T06:21:04;10.90;;;5.97;;
72388;SDS011;60566;48.062;9.930;2022-11-20T06:23:32;10.05;;;5.32;;
72388;SDS011;60566;48.062;9.930;2022-11-20T06:26:00;10.40;;;5.80;;
72388;SDS011;60566;48.062;9.930;2022-11-20T06:28:26;12.20;;;7.07;;
72388;SDS011;60566;48.062;9.930;2022-11-20T06:30:51;11.57;;;6.03;;
72388;SDS011;60566;48.062;9.930;2022-11-20T06:33:17;12.18;;;6.43;;
72388;SDS011;60566;48.062;9.930;2022-11-20T06:35:42;10.20;;;5.95;;
72388;SDS011;60566;48.062;9.930;2022-11-20T06:38:08;11.93;;;5.22;;
72388;SDS011;60566;48.062;9.930;2022-11-20T06:40:35;10.55;;;5.72;;
72388;SDS011;60566;48.062;9.930;2022-11-20T06:43:03;13.07;;;7.35;;
72388;SDS011;60566;48.062;9.930;2022-11-20T06:45:28;11.48;;;6.38;;
72388;SDS011;60566;48.062;9.930;2022-11-20T06:47:56;10.77;;;6.00;;
72388;SDS011;60566;48.062;9.930;2022-11-20T06:50:22;11.55;;;6.35;;
72388;SDS011;60566;48.062;9.930;2022-11-20T06:52:47;13.80;;;6.50;;
72388;SDS011;60566;48.062;9.930;2022-11-20T06:55:13;10.05;;;5.38;;
72388;SDS011;60566;48.062;9.930;2022-11-20T06:57:40;10.40;;;6.07;;
72388;SDS011;60566;48.062;9.930;2022-11-20T07:00:06;9.23;;;5.68;;
72388;SDS011;60566;48.062;9.930;2022-11-20T07:02:36;8.57;;;5.50;;
72388;SDS011;60566;48.062;9.930;2022-11-20T07:05:01;12.13;;;6.15;;
72388;SDS011;60566;48.062;9.930;2022-11-20T07:07:29;12.23;;;5.35;;
72388;SDS011;60566;48.062;9.930;2022-11-20T07:09:54;8.40;;;4.95;;
72388;SDS011;60566;48.062;9.930;2022-11-20T07:12:20;8.35;;;5.30;;
72388;SDS011;60566;48.062;9.930;2022-11-20T07:14:46;8.07;;;5.97;;
72388;SDS011;60566;48.062;9.930;2022-11-20T07:17:12;10.98;;;4.60;;
72388;SDS011;60566;48.062;9.930;2022-11-20T07:19:37;11.38;;;5.45;;
72388;SDS011;60566;48.062;9.930;2022-11-20T07:22:03;10.50;;;4.45;;
72388;SDS011;60566;48.062;9.930;2022-11-20T07:24:29;8.95;;;4.60;;
72388;SDS011;60566;48.062;9.930;2022-11-20T07:26:54;8.85;;;5.13;;
72388;SDS011;60566;48.062;9.930;2022-11-20T07:29:19;11.85;;;5.60;;
72388;SDS011;60566;48.062;9.930;2022-11-20T07:31:46;10.15;;;5.22;;
72388;SDS011;60566;48.062;9.930;2022-11-20T07:34:12;8.77;;;4.45;;
72388;SDS011;60566;48.062;9.930;2022-11-20T07:36:37;8.80;;;5.28;;
72388;SDS011;60566;48.062;9.930;2022-11-20T07:39:03;8.15;;;5.60;;
72388;SDS011;60566;48.062;9.930;2022-11-20T07:41:28;8.70;;;4.43;;
72388;SDS011;60566;48.062;9.930;2022-11-20T07:43:54;7.65;;;5.13;;
72388;SDS011;60566;48.062;9.930;2022-11-20T07:46:19;8.15;;;5.93;;
72388;SDS011;60566;48.062;9.930;2022-11-20T07:48:46;9.77;;;4.82;;
72388;SDS011;60566;48.062;9.930;2022-11-20T07:51:11;7.22;;;4.22;;
72388;SDS011;60566;48.062;9.930;2022-11-20T07:53:36;6.75;;;3.53;;
72388;SDS011;60566;48.062;9.930;2022-11-20T07:56:02;9.23;;;4.93;;
72388;SDS011;60566;48.062;9.930;2022-11-20T07:58:28;10.10;;;4.80;;
72388;SDS011;60566;48.062;9.930;2022-11-20T08:00:54;10.13;;;4.15;;
72388;SDS011;60566;48.062;9.930;2022-11-20T08:03:19;7.68;;;3.95;;
72388;SDS011;60566;48.062;9.930;2022-11-20T08:05:46;8.98;;;4.07;;
72388;SDS011;60566;48.062;9.930;2022-11-20T08:08:11;9.77;;;4.43;;
72388;SDS011;60566;48.062;9.930;2022-11-20T08:10:37;7.55;;;3.85;;
72388;SDS011;60566;48.062;9.930;2022-11-20T08:13:02;9.57;;;4.28;;
72388;SDS011;60566;48.062;9.930;2022-11-20T08:15:28;7.47;;;3.80;;
72388;SDS011;60566;48.062;9.930;2022-11-20T08:17:58;6.85;;;4.80;;
72388;SDS011;60566;48.062;9.930;2022-11-20T08:20:25;5.70;;;3.03;;
72388;SDS011;60566;48.062;9.930;2022-11-20T08:22:52;7.72;;;3.67;;
72388;SDS011;60566;48.062;9.930;2022-11-20T08:25:17;9.07;;;3.70;;
72388;SDS011;60566;48.062;9.930;2022-11-20T08:27:43;7.55;;;3.88;;
72388;SDS011;60566;48.062;9.930;2022-11-20T08:30:09;6.20;;;3.78;;
72388;SDS011;60566;48.062;9.930;2022-11-20T08:32:35;5.82;;;3.38;;
72388;SDS011;60566;48.062;9.930;2022-11-20T08:35:00;5.72;;;2.92;;
72388;SDS011;60566;48.062;9.930;2022-11-20T08:37:26;5.97;;;3.35;;
72388;SDS011;60566;48.062;9.930;2022-11-20T08:39:53;8.32;;;4.13;;
72388;SDS011;60566;48.062;9.930;2022-11-20T08:42:18;6.05;;;3.38;;
72388;SDS011;60566;48.062;9.930;2022-11-20T08:44:44;4.68;;;2.70;;
72388;SDS011;60566;48.062;9.930;2022-11-20T08:47:09;8.27;;;3.65;;
72388;SDS011;60566;48.062;9.930;2022-11-20T08:49:34;7.25;;;4.45;;
72388;SDS011;60566;48.062;9.930;2022-11-20T08:52:00;5.53;;;3.30;;
72388;SDS011;60566;48.062;9.930;2022-11-20T08:54:25;5.60;;;3.10;;
72388;SDS011;60566;48.062;9.930;2022-11-20T08:56:52;5.75;;;3.63;;
72388;SDS011;60566;48.062;9.930;2022-11-20T08:59:17;6.45;;;3.22;;
72388;SDS011;60566;48.062;9.930;2022-11-20T09:01:43;6.90;;;3.42;;
72388;SDS011;60566;48.062;9.930;2022-11-20T09:04:08;6.55;;;3.17;;
72388;SDS011;60566;48.062;9.930;2022-11-20T09:06:34;6.20;;;4.18;;
72388;SDS011;60566;48.062;9.930;2022-11-20T09:08:59;5.38;;;3.00;;
72388;SDS011;60566;48.062;9.930;2022-11-20T09:11:24;5.28;;;3.35;;
72388;SDS011;60566;48.062;9.930;2022-11-20T09:13:51;4.70;;;2.85;;
72388;SDS011;60566;48.062;9.930;2022-11-20T09:16:16;4.03;;;2.50;;
72388;SDS011;60566;48.062;9.930;2022-11-20T09:18:42;4.60;;;2.40;;
72388;SDS011;60566;48.062;9.930;2022-11-20T09:21:11;6.22;;;2.78;;
72388;SDS011;60566;48.062;9.930;2022-11-20T09:23:38;5.75;;;2.60;;
72388;SDS011;60566;48.062;9.930;2022-11-20T09:26:03;4.15;;;2.60;;
72388;SDS011;60566;48.062;9.930;2022-11-20T09:28:29;4.47;;;2.35;;
72388;SDS011;60566;48.062;9.930;2022-11-20T09:30:56;7.05;;;2.22;;
72388;SDS011;60566;48.062;9.930;2022-11-20T09:33:25;6.13;;;2.70;;
72388;SDS011;60566;48.062;9.930;2022-11-20T09:35:50;5.05;;;2.88;;
72388;SDS011;60566;48.062;9.930;2022-11-20T09:38:16;5.18;;;2.15;;
72388;SDS011;60566;48.062;9.930;2022-11-20T09:40:43;3.83;;;2.22;;
72388;SDS011;60566;48.062;9.930;2022-11-20T09:43:12;4.50;;;2.60;;
72388;SDS011;60566;48.062;9.930;2022-11-20T09:45:48;7.13;;;2.45;;
72388;SDS011;60566;48.062;9.930;2022-11-20T09:48:24;3.70;;;2.13;;
72388;SDS011;60566;48.062;9.930;2022-11-20T09:50:56;5.53;;;3.17;;
72388;SDS011;60566;48.062;9.930;2022-11-20T09:53:24;5.55;;;2.42;;
72388;SDS011;60566;48.062;9.930;2022-11-20T09:55:54;4.38;;;2.95;;
72388;SDS011;60566;48.062;9.930;2022-11-20T09:58:24;4.65;;;2.20;;
72388;SDS011;60566;48.062;9.930;2022-11-20T10:00:53;3.50;;;2.15;;
72388;SDS011;60566;48.062;9.930;2022-11-20T10:03:19;4.95;;;2.65;;
72388;SDS011;60566;48.062;9.930;2022-11-20T10:05:51;5.25;;;2.95;;
72388;SDS011;60566;48.062;9.930;2022-11-20T10:08:19;6.03;;;3.05;;
72388;SDS011;60566;48.062;9.930;2022-11-20T10:13:17;4.28;;;2.58;;
72388;SDS011;60566;48.062;9.930;2022-11-20T10:16:01;4.45;;;2.78;;
72388;SDS011;60566;48.062;9.930;2022-11-20T10:18:45;4.20;;;2.15;;
72388;SDS011;60566;48.062;9.930;2022-11-20T10:21:23;3.75;;;1.90;;
72388;SDS011;60566;48.062;9.930;2022-11-20T10:24:04;4.07;;;2.38;;
72388;SDS011;60566;48.062;9.930;2022-11-20T10:26:49;4.53;;;2.30;;
72388;SDS011;60566;48.062;9.930;2022-11-20T10:29:18;4.75;;;2.38;;
72388;SDS011;60566;48.062;9.930;2022-11-20T10:31:45;4.97;;;2.47;;
72388;SDS011;60566;48.062;9.930;2022-11-20T10:34:16;4.53;;;2.22;;
72388;SDS011;60566;48.062;9.930;2022-11-20T10:36:46;5.05;;;2.47;;
72388;SDS011;60566;48.062;9.930;2022-11-20T10:39:16;4.50;;;2.40;;
72388;SDS011;60566;48.062;9.930;2022-11-20T10:41:45;4.13;;;2.08;;
72388;SDS011;60566;48.062;9.930;2022-11-20T10:44:15;5.03;;;2.22;;
72388;SDS011;60566;48.062;9.930;2022-11-20T10:46:43;4.22;;;1.98;;
72388;SDS011;60566;48.062;9.930;2022-11-20T10:49:12;4.18;;;2.67;;
72388;SDS011;60566;48.062;9.930;2022-11-20T10:51:44;4.20;;;2.33;;
72388;SDS011;60566;48.062;9.930;2022-11-20T10:54:20;4.35;;;1.88;;
72388;SDS011;60566;48.062;9.930;2022-11-20T10:56:47;5.10;;;2.35;;
72388;SDS011;60566;48.062;9.930;2022-11-20T10:59:26;3.97;;;2.67;;
72388;SDS011;60566;48.062;9.930;2022-11-20T11:02:15;3.55;;;2.63;;
72388;SDS011;60566;48.062;9.930;2022-11-20T11:04:44;5.10;;;2.80;;
72388;SDS011;60566;48.062;9.930;2022-11-20T11:09:46;3.97;;;2.03;;
72388;SDS011;60566;48.062;9.930;2022-11-20T11:12:13;7.53;;;2.65;;
72388;SDS011;60566;48.062;9.930;2022-11-20T11:14:42;3.55;;;2.30;;
72388;SDS011;60566;48.062;9.930;2022-11-20T11:17:17;5.45;;;2.20;;
72388;SDS011;60566;48.062;9.930;2022-11-20T11:19:46;6.55;;;3.30;;
72388;SDS011;60566;48.062;9.930;2022-11-20T11:22:22;3.80;;;1.92;;
72388;SDS011;60566;48.062;9.930;2022-11-20T11:24:51;5.13;;;2.67;;
72388;SDS011;60566;48.062;9.930;2022-11-20T11:27:17;5.18;;;1.83;;
72388;SDS011;60566;48.062;9.930;2022-11-20T11:29:42;5.05;;;2.92;;
72388;SDS011;60566;48.062;9.930;2022-11-20T11:32:08;4.57;;;2.17;;
72388;SDS011;60566;48.062;9.930;2022-11-20T11:34:37;5.13;;;2.25;;
72388;SDS011;60566;48.062;9.930;2022-11-20T11:37:03;5.78;;;2.40;;
72388;SDS011;60566;48.062;9.930;2022-11-20T11:39:29;5.28;;;2.63;;
72388;SDS011;60566;48.062;9.930;2022-11-20T11:41:56;5.07;;;2.38;;
72388;SDS011;60566;48.062;9.930;2022-11-20T11:44:23;6.75;;;2.30;;
72388;SDS011;60566;48.062;9.930;2022-11-20T11:46:51;5.55;;;2.22;;
72388;SDS011;60566;48.062;9.930;2022-11-20T11:49:18;4.75;;;2.55;;
72388;SDS011;60566;48.062;9.930;2022-11-20T11:51:50;4.07;;;2.65;;
72388;SDS011;60566;48.062;9.930;2022-11-20T11:54:26;4.22;;;2.72;;
72388;SDS011;60566;48.062;9.930;2022-11-20T11:56:54;3.88;;;2.22;;
72388;SDS011;60566;48.062;9.930;2022-11-20T11:59:23;5.57;;;2.63;;
72388;SDS011;60566;48.062;9.930;2022-11-20T12:01:52;4.93;;;2.58;;
72388;SDS011;60566;48.062;9.930;2022-11-20T12:04:21;7.72;;;2.17;;
72388;SDS011;60566;48.062;9.930;2022-11-20T12:06:58;4.28;;;2.20;;
72388;SDS011;60566;48.062;9.930;2022-11-20T12:11:58;7.47;;;3.30;;
72388;SDS011;60566;48.062;9.930;2022-11-20T12:14:31;3.42;;;1.90;;
72388;SDS011;60566;48.062;9.930;2022-11-20T12:16:59;5.65;;;2.03;;
72388;SDS011;60566;48.062;9.930;2022-11-20T12:19:25;4.60;;;2.10;;
72388;SDS011;60566;48.062;9.930;2022-11-20T12:21:54;5.72;;;1.90;;
72388;SDS011;60566;48.062;9.930;2022-11-20T12:24:39;5.20;;;2.40;;
72388;SDS011;60566;48.062;9.930;2022-11-20T12:27:16;4.05;;;2.30;;
72388;SDS011;60566;48.062;9.930;2022-11-20T12:30:07;4.97;;;2.20;;
72388;SDS011;60566;48.062;9.930;2022-11-20T12:32:47;4.22;;;2.35;;
72388;SDS011;60566;48.062;9.930;2022-11-20T12:35:26;4.72;;;2.08;;
72388;SDS011;60566;48.062;9.930;2022-11-20T12:38:00;5.05;;;1.80;;
72388;SDS011;60566;48.062;9.930;2022-11-20T12:40:39;5.20;;;2.58;;
72388;SDS011;60566;48.062;9.930;2022-11-20T12:43:11;4.50;;;1.80;;
72388;SDS011;60566;48.062;9.930;2022-11-20T12:48:42;4.18;;;2.10;;
72388;SDS011;60566;48.062;9.930;2022-11-20T12:51:29;6.13;;;3.08;;
72388;SDS011;60566;48.062;9.930;2022-11-20T12:54:04;5.47;;;2.35;;
72388;SDS011;60566;48.062;9.930;2022-11-20T12:56:41;4.35;;;2.58;;
72388;SDS011;60566;48.062;9.930;2022-11-20T12:59:16;5.95;;;2.33;;
72388;SDS011;60566;48.062;9.930;2022-11-20T13:01:49;3.83;;;1.77;;
72388;SDS011;60566;48.062;9.930;2022-11-20T13:04:18;3.90;;;2.00;;
72388;SDS011;60566;48.062;9.930;2022-11-20T13:07:01;3.88;;;2.13;;
72388;SDS011;60566;48.062;9.930;2022-11-20T13:09:27;4.53;;;2.35;;
72388;SDS011;60566;48.062;9.930;2022-11-20T13:11:57;3.80;;;2.10;;
72388;SDS011;60566;48.062;9.930;2022-11-20T13:14:29;5.28;;;2.17;;
72388;SDS011;60566;48.062;9.930;2022-11-20T13:16:58;4.22;;;1.90;;
72388;SDS011;60566;48.062;9.930;2022-11-20T13:19:24;5.45;;;2.33;;
72388;SDS011;60566;48.062;9.930;2022-11-20T13:21:50;6.18;;;2.50;;
72388;SDS011;60566;48.062;9.930;2022-11-20T13:24:23;6.80;;;2.42;;
72388;SDS011;60566;48.062;9.930;2022-11-20T13:27:00;7.10;;;2.90;;
72388;SDS011;60566;48.062;9.930;2022-11-20T13:29:29;5.40;;;1.80;;
72388;SDS011;60566;48.062;9.930;2022-11-20T13:32:02;3.13;;;1.67;;
72388;SDS011;60566;48.062;9.930;2022-11-20T13:34:29;5.05;;;2.25;;
72388;SDS011;60566;48.062;9.930;2022-11-20T13:36:55;4.45;;;2.22;;
72388;SDS011;60566;48.062;9.930;2022-11-20T13:39:25;3.92;;;2.13;;
72388;SDS011;60566;48.062;9.930;2022-11-20T13:41:53;4.05;;;2.03;;
72388;SDS011;60566;48.062;9.930;2022-11-20T13:44:23;10.32;;;4.47;;
72388;SDS011;60566;48.062;9.930;2022-11-20T13:46:51;6.53;;;3.15;;
72388;SDS011;60566;48.062;9.930;2022-11-20T13:49:17;5.72;;;2.88;;
72388;SDS011;60566;48.062;9.930;2022-11-20T13:51:44;4.30;;;2.33;;
72388;SDS011;60566;48.062;9.930;2022-11-20T13:57:31;5.20;;;2.20;;
72388;SDS011;60566;48.062;9.930;2022-11-20T14:00:15;3.38;;;1.98;;
72388;SDS011;60566;48.062;9.930;2022-11-20T14:02:42;3.50;;;1.63;;
72388;SDS011;60566;48.062;9.930;2022-11-20T14:05:11;7.65;;;4.20;;
72388;SDS011;60566;48.062;9.930;2022-11-20T14:10:18;8.57;;;1.80;;
72388;SDS011;60566;48.062;9.930;2022-11-20T14:12:45;3.40;;;2.45;;
72388;SDS011;60566;48.062;9.930;2022-11-20T14:15:24;3.85;;;2.42;;
72388;SDS011;60566;48.062;9.930;2022-11-20T14:17:50;3.97;;;1.45;;
72388;SDS011;60566;48.062;9.930;2022-11-20T14:20:16;4.18;;;1.77;;
72388;SDS011;60566;48.062;9.930;2022-11-20T14:22:47;3.85;;;2.00;;
72388;SDS011;60566;48.062;9.930;2022-11-20T14:25:18;3.83;;;1.77;;
72388;SDS011;60566;48.062;9.930;2022-11-20T14:27:47;2.90;;;1.50;;
72388;SDS011;60566;48.062;9.930;2022-11-20T14:30:17;2.85;;;1.90;;
72388;SDS011;60566;48.062;9.930;2022-11-20T14:32:46;2.58;;;1.55;;
72388;SDS011;60566;48.062;9.930;2022-11-20T14:35:14;3.50;;;1.58;;
72388;SDS011;60566;48.062;9.930;2022-11-20T14:37:44;3.88;;;1.95;;
72388;SDS011;60566;48.062;9.930;2022-11-20T14:42:54;4.40;;;1.63;;
72388;SDS011;60566;48.062;9.930;2022-11-20T14:45:20;3.22;;;1.80;;
72388;SDS011;60566;48.062;9.930;2022-11-20T14:47:47;2.95;;;1.40;;
72388;SDS011;60566;48.062;9.930;2022-11-20T14:50:14;3.72;;;2.00;;
72388;SDS011;60566;48.062;9.930;2022-11-20T14:52:49;3.47;;;1.55;;
72388;SDS011;60566;48.062;9.930;2022-11-20T14:55:24;3.65;;;1.58;;
72388;SDS011;60566;48.062;9.930;2022-11-20T15:00:21;3.30;;;1.90;;
72388;SDS011;60566;48.062;9.930;2022-11-20T15:02:49;8.32;;;2.75;;
72388;SDS011;60566;48.062;9.930;2022-11-20T15:05:15;6.70;;;2.83;;
72388;SDS011;60566;48.062;9.930;2022-11-20T15:07:42;4.72;;;2.20;;
72388;SDS011;60566;48.062;9.930;2022-11-20T15:10:09;4.82;;;2.30;;
72388;SDS011;60566;48.062;9.930;2022-11-20T15:12:37;5.10;;;2.25;;
72388;SDS011;60566;48.062;9.930;2022-11-20T15:15:04;5.93;;;3.20;;
72388;SDS011;60566;48.062;9.930;2022-11-20T15:17:30;14.80;;;4.90;;